sensor_id;sensor_type;location;lat;lon;timestamp;noise_LAeq;noise_LA_min;noise_LA_max;noise_LA01;noise_LA95
50333;Laerm;36239;48.132;-1.210;2022-08-04T00:00:17;51.71;33.44;78.51;;
50333;Laerm;36239;48.132;-1.210;2022-08-04T00:05:12;47.72;33.90;69.38;;
50333;Laerm;36239;48.132;-1.210;2022-08-04T00:10:27;49.06;33.44;77.95;;
50333;Laerm;36239;48.132;-1.210;2022-08-04T00:12:54;52.27;32.93;81.95;;
50333;Laerm;36239;48.132;-1.210;2022-08-04T00:15:23;52.73;31.68;79.64;;
50333;Laerm;36239;48.132;-1.210;2022-08-04T00:17:54;46.57;30.89;70.14;;
50333;Laerm;36239;48.132;-1.210;2022-08-04T00:20:24;50.45;32.93;77.75;;
50333;Laerm;36239;48.132;-1.210;2022-08-04T00:22:54;51.02;33.44;79.12;;
50333;Laerm;36239;48.132;-1.210;2022-08-04T00:25:20;48.62;33.44;74.57;;
50333;Laerm;36239;48.132;-1.210;2022-08-04T00:27:47;39.18;32.35;61.44;;
50333;Laerm;36239;48.132;-1.210;2022-08-04T00:30:13;39.45;32.35;61.89;;
50333;Laerm;36239;48.132;-1.210;2022-08-04T00:32:40;40.52;32.93;64.54;;
50333;Laerm;36239;48.132;-1.210;2022-08-04T00:35:09;47.44;32.93;71.11;;
50333;Laerm;36239;48.132;-1.210;2022-08-04T00:37:37;43.05;32.35;67.72;;
50333;Laerm;36239;48.132;-1.210;2022-08-04T00:40:08;38.39;32.93;57.28;;
50333;Laerm;36239;48.132;-1.210;2022-08-04T00:42:48;39.67;32.35;62.95;;
50333;Laerm;36239;48.132;-1.210;2022-08-04T00:50:52;45.71;32.93;70.58;;
50333;Laerm;36239;48.132;-1.210;2022-08-04T00:58:33;40.24;32.93;65.28;;
50333;Laerm;36239;48.132;-1.210;2022-08-04T01:01:05;40.37;32.93;59.38;;
50333;Laerm;36239;48.132;-1.210;2022-08-04T01:16:09;46.45;32.93;72.34;;
50333;Laerm;36239;48.132;-1.210;2022-08-04T01:18:54;42.55;32.35;67.74;;
50333;Laerm;36239;48.132;-1.210;2022-08-04T01:34:10;44.72;32.35;68.54;;
50333;Laerm;36239;48.132;-1.210;2022-08-04T01:36:36;60.58;32.35;85.56;;
50333;Laerm;36239;48.132;-1.210;2022-08-04T01:39:07;38.12;32.93;55.00;;
50333;Laerm;36239;48.132;-1.210;2022-08-04T01:41:53;43.24;32.93;70.44;;
50333;Laerm;36239;48.132;-1.210;2022-08-04T01:44:20;45.27;33.44;72.63;;
50333;Laerm;36239;48.132;-1.210;2022-08-04T01:46:47;50.93;33.44;74.37;;
50333;Laerm;36239;48.132;-1.210;2022-08-04T01:49:14;56.28;32.93;82.52;;
50333;Laerm;36239;48.132;-1.210;2022-08-04T01:51:41;54.23;33.90;81.17;;
50333;Laerm;36239;48.132;-1.210;2022-08-04T01:54:08;54.87;32.93;79.05;;
50333;Laerm;36239;48.132;-1.210;2022-08-04T01:56:36;60.53;34.31;86.04;;
50333;Laerm;36239;48.132;-1.210;2022-08-04T01:59:02;40.94;33.90;61.91;;
50333;Laerm;36239;48.132;-1.210;2022-08-04T02:01:28;50.92;34.31;74.27;;
50333;Laerm;36239;48.132;-1.210;2022-08-04T02:04:00;44.79;34.31;72.04;;
50333;Laerm;36239;48.132;-1.210;2022-08-04T02:09:09;59.12;31.68;83.04;;
50333;Laerm;36239;48.132;-1.210;2022-08-04T02:11:37;51.74;32.93;79.15;;
50333;Laerm;36239;48.132;-1.210;2022-08-04T02:14:09;67.49;33.55;92.30;;
50333;Laerm;36239;48.132;-1.210;2022-08-04T02:17:00;64.68;34.31;91.46;;
50333;Laerm;36239;48.132;-1.210;2022-08-04T02:19:41;56.93;35.36;87.15;;
50333;Laerm;36239;48.132;-1.210;2022-08-04T02:22:14;62.87;36.20;87.89;;
50333;Laerm;36239;48.132;-1.210;2022-08-04T02:24:44;64.20;35.36;89.72;;
50333;Laerm;36239;48.132;-1.210;2022-08-04T02:27:12;52.78;33.97;77.86;;
50333;Laerm;36239;48.132;-1.210;2022-08-04T02:29:47;48.29;33.90;70.44;;
50333;Laerm;36239;48.132;-1.210;2022-08-04T02:32:26;45.27;34.31;68.82;;
50333;Laerm;36239;48.132;-1.210;2022-08-04T02:37:31;46.35;33.90;72.38;;
50333;Laerm;36239;48.132;-1.210;2022-08-04T02:39:58;45.06;35.36;68.21;;
50333;Laerm;36239;48.132;-1.210;2022-08-04T02:42:25;58.14;33.90;83.47;;
50333;Laerm;36239;48.132;-1.210;2022-08-04T02:44:51;48.03;33.90;72.12;;
50333;Laerm;36239;48.132;-1.210;2022-08-04T02:47:21;57.39;34.69;79.71;;
50333;Laerm;36239;48.132;-1.210;2022-08-04T02:49:49;55.84;34.31;78.71;;
50333;Laerm;36239;48.132;-1.210;2022-08-04T02:52:15;49.67;34.69;75.13;;
50333;Laerm;36239;48.132;-1.210;2022-08-04T02:54:43;39.77;33.44;58.27;;
50333;Laerm;36239;48.132;-1.210;2022-08-04T02:57:12;59.36;33.44;81.94;;
50333;Laerm;36239;48.132;-1.210;2022-08-04T03:05:10;52.26;33.90;78.11;;
50333;Laerm;36239;48.132;-1.210;2022-08-04T03:10:17;68.41;33.44;91.22;;
50333;Laerm;36239;48.132;-1.210;2022-08-04T03:15:33;53.85;34.31;75.30;;
50333;Laerm;36239;48.132;-1.210;2022-08-04T03:28:37;55.42;35.04;79.87;;
50333;Laerm;36239;48.132;-1.210;2022-08-04T03:58:31;60.20;36.34;85.37;;
50333;Laerm;36239;48.132;-1.210;2022-08-04T04:00:40;54.69;34.69;79.73;;
50333;Laerm;36239;48.132;-1.210;2022-08-04T04:16:31;46.27;35.36;77.53;;
50333;Laerm;36239;48.132;-1.210;2022-08-04T04:29:29;43.07;35.04;67.80;;
50333;Laerm;36239;48.132;-1.210;2022-08-04T04:34:52;51.75;33.90;74.97;;
50333;Laerm;36239;48.132;-1.210;2022-08-04T04:47:43;51.87;35.66;76.90;;
50333;Laerm;36239;48.132;-1.210;2022-08-04T04:52:40;58.90;35.36;83.64;;
50333;Laerm;36239;48.132;-1.210;2022-08-04T04:57:33;53.40;35.36;75.27;;
50333;Laerm;36239;48.132;-1.210;2022-08-04T05:00:04;59.46;35.04;84.90;;
50333;Laerm;36239;48.132;-1.210;2022-08-04T05:10:38;60.30;36.69;87.72;;
50333;Laerm;36239;48.132;-1.210;2022-08-04T05:15:41;57.50;35.66;79.42;;
50333;Laerm;36239;48.132;-1.210;2022-08-04T05:18:11;53.10;35.36;76.43;;
50333;Laerm;36239;48.132;-1.210;2022-08-04T05:20:43;48.34;36.91;70.79;;
50333;Laerm;36239;48.132;-1.210;2022-08-04T05:23:24;47.29;35.94;78.59;;
50333;Laerm;36239;48.132;-1.210;2022-08-04T05:26:01;42.69;36.56;71.14;;
50333;Laerm;36239;48.132;-1.210;2022-08-04T05:28:35;41.23;35.36;65.94;;
50333;Laerm;36239;48.132;-1.210;2022-08-04T05:31:04;47.29;37.52;67.96;;
50333;Laerm;36239;48.132;-1.210;2022-08-04T05:33:33;48.10;37.12;74.96;;
50333;Laerm;36239;48.132;-1.210;2022-08-04T05:36:01;59.34;37.52;78.97;;
50333;Laerm;36239;48.132;-1.210;2022-08-04T05:38:33;68.40;38.05;92.12;;
50333;Laerm;36239;48.132;-1.210;2022-08-04T05:41:00;44.07;36.45;68.76;;
50333;Laerm;36239;48.132;-1.210;2022-08-04T05:43:26;64.77;38.18;89.53;;
50333;Laerm;36239;48.132;-1.210;2022-08-04T05:45:52;57.77;38.05;80.25;;
50333;Laerm;36239;48.132;-1.210;2022-08-04T05:48:19;61.93;38.67;81.34;;
50333;Laerm;36239;48.132;-1.210;2022-08-04T05:50:45;51.76;38.05;79.34;;
50333;Laerm;36239;48.132;-1.210;2022-08-04T05:53:12;51.46;37.32;73.28;;
50333;Laerm;36239;48.132;-1.210;2022-08-04T05:55:39;65.66;38.05;93.70;;
50333;Laerm;36239;48.132;-1.210;2022-08-04T05:58:05;69.70;36.91;92.01;;
50333;Laerm;36239;48.132;-1.210;2022-08-04T06:00:31;44.17;37.32;66.92;;
50333;Laerm;36239;48.132;-1.210;2022-08-04T06:02:59;43.04;36.91;70.65;;
50333;Laerm;36239;48.132;-1.210;2022-08-04T06:05:26;49.74;37.53;76.92;;
50333;Laerm;36239;48.132;-1.210;2022-08-04T06:07:53;54.34;37.88;78.48;;
50333;Laerm;36239;48.132;-1.210;2022-08-04T06:10:19;48.29;36.69;76.62;;
50333;Laerm;36239;48.132;-1.210;2022-08-04T06:12:49;57.50;37.32;85.29;;
50333;Laerm;36239;48.132;-1.210;2022-08-04T06:15:17;50.82;37.12;67.42;;
50333;Laerm;36239;48.132;-1.210;2022-08-04T06:17:48;64.10;36.45;88.02;;
50333;Laerm;36239;48.132;-1.210;2022-08-04T06:20:14;69.76;38.52;94.18;;
50333;Laerm;36239;48.132;-1.210;2022-08-04T06:22:41;57.80;39.70;83.70;;
50333;Laerm;36239;48.132;-1.210;2022-08-04T06:25:10;60.20;38.05;86.71;;
50333;Laerm;36239;48.132;-1.210;2022-08-04T06:27:37;56.99;37.12;86.88;;
50333;Laerm;36239;48.132;-1.210;2022-08-04T06:30:04;57.22;37.12;79.64;;
50333;Laerm;36239;48.132;-1.210;2022-08-04T06:32:34;57.46;36.34;83.08;;
50333;Laerm;36239;48.132;-1.210;2022-08-04T06:35:04;52.11;35.94;76.54;;
50333;Laerm;36239;48.132;-1.210;2022-08-04T06:37:31;55.40;37.52;78.39;;
50333;Laerm;36239;48.132;-1.210;2022-08-04T06:39:57;48.26;37.32;68.60;;
50333;Laerm;36239;48.132;-1.210;2022-08-04T06:42:25;39.87;36.45;46.58;;
50333;Laerm;36239;48.132;-1.210;2022-08-04T06:44:55;56.63;35.94;82.41;;
50333;Laerm;36239;48.132;-1.210;2022-08-04T06:47:22;45.20;36.20;69.03;;
50333;Laerm;36239;48.132;-1.210;2022-08-04T06:49:50;54.70;36.45;77.43;;
50333;Laerm;36239;48.132;-1.210;2022-08-04T06:52:17;55.42;36.45;79.00;;
50333;Laerm;36239;48.132;-1.210;2022-08-04T06:54:45;47.98;35.94;70.75;;
50333;Laerm;36239;48.132;-1.210;2022-08-04T06:57:12;45.62;36.91;64.68;;
50333;Laerm;36239;48.132;-1.210;2022-08-04T06:59:40;47.06;37.12;72.35;;
50333;Laerm;36239;48.132;-1.210;2022-08-04T07:02:07;50.50;42.41;71.53;;
50333;Laerm;36239;48.132;-1.210;2022-08-04T07:04:38;52.07;39.21;75.26;;
50333;Laerm;36239;48.132;-1.210;2022-08-04T07:07:04;57.33;41.53;82.60;;
50333;Laerm;36239;48.132;-1.210;2022-08-04T07:09:30;55.90;42.09;81.27;;
50333;Laerm;36239;48.132;-1.210;2022-08-04T07:11:57;60.36;40.13;84.93;;
50333;Laerm;36239;48.132;-1.210;2022-08-04T07:14:24;50.66;40.89;70.33;;
50333;Laerm;36239;48.132;-1.210;2022-08-04T07:16:51;52.53;36.91;76.15;;
50333;Laerm;36239;48.132;-1.210;2022-08-04T07:19:19;54.43;36.91;78.39;;
50333;Laerm;36239;48.132;-1.210;2022-08-04T07:21:44;54.11;37.12;84.46;;
50333;Laerm;36239;48.132;-1.210;2022-08-04T07:24:11;53.90;37.70;85.93;;
50333;Laerm;36239;48.132;-1.210;2022-08-04T07:26:37;61.85;38.05;90.49;;
50333;Laerm;36239;48.132;-1.210;2022-08-04T07:29:03;59.19;35.66;84.30;;
50333;Laerm;36239;48.132;-1.210;2022-08-04T07:31:29;68.26;38.67;95.42;;
50333;Laerm;36239;48.132;-1.210;2022-08-04T07:33:56;67.02;38.67;91.49;;
50333;Laerm;36239;48.132;-1.210;2022-08-04T07:36:22;57.00;38.52;85.09;;
50333;Laerm;36239;48.132;-1.210;2022-08-04T07:38:48;71.53;38.32;101.45;;
50333;Laerm;36239;48.132;-1.210;2022-08-04T07:41:16;53.42;37.12;76.75;;
50333;Laerm;36239;48.132;-1.210;2022-08-04T07:43:44;58.90;37.12;81.45;;
50333;Laerm;36239;48.132;-1.210;2022-08-04T07:46:11;64.08;37.70;87.10;;
50333;Laerm;36239;48.132;-1.210;2022-08-04T07:48:37;62.75;37.12;88.22;;
50333;Laerm;36239;48.132;-1.210;2022-08-04T07:51:03;47.61;37.32;73.57;;
50333;Laerm;36239;48.132;-1.210;2022-08-04T07:53:30;61.00;37.88;82.36;;
50333;Laerm;36239;48.132;-1.210;2022-08-04T07:55:57;69.39;38.67;102.10;;
50333;Laerm;36239;48.132;-1.210;2022-08-04T07:58:23;72.50;39.21;98.84;;
50333;Laerm;36239;48.132;-1.210;2022-08-04T08:00:49;55.33;38.37;80.12;;
50333;Laerm;36239;48.132;-1.210;2022-08-04T08:03:16;62.62;38.52;86.93;;
50333;Laerm;36239;48.132;-1.210;2022-08-04T08:05:42;66.09;38.52;90.09;;
50333;Laerm;36239;48.132;-1.210;2022-08-04T08:08:08;58.70;38.52;85.07;;
50333;Laerm;36239;48.132;-1.210;2022-08-04T08:10:35;71.39;38.67;98.69;;
50333;Laerm;36239;48.132;-1.210;2022-08-04T08:13:01;62.25;37.52;88.42;;
50333;Laerm;36239;48.132;-1.210;2022-08-04T08:15:28;60.40;37.52;84.91;;
50333;Laerm;36239;48.132;-1.210;2022-08-04T08:17:54;60.55;37.32;83.26;;
50333;Laerm;36239;48.132;-1.210;2022-08-04T08:20:20;63.55;37.88;85.80;;
50333;Laerm;36239;48.132;-1.210;2022-08-04T08:22:46;59.93;37.70;89.95;;
50333;Laerm;36239;48.132;-1.210;2022-08-04T08:25:13;68.99;38.52;93.22;;
50333;Laerm;36239;48.132;-1.210;2022-08-04T08:27:39;42.92;37.88;62.53;;
50333;Laerm;36239;48.132;-1.210;2022-08-04T08:30:05;68.03;38.05;95.50;;
50333;Laerm;36239;48.132;-1.210;2022-08-04T08:32:31;55.22;35.66;80.12;;
50333;Laerm;36239;48.132;-1.210;2022-08-04T08:34:57;65.26;37.88;91.32;;
50333;Laerm;36239;48.132;-1.210;2022-08-04T08:37:31;56.94;42.09;77.97;;
50333;Laerm;36239;48.132;-1.210;2022-08-04T08:40:09;64.22;41.06;90.62;;
50333;Laerm;36239;48.132;-1.210;2022-08-04T08:53:38;68.54;38.05;93.44;;
50333;Laerm;36239;48.132;-1.210;2022-08-04T08:56:16;60.05;37.70;84.19;;
50333;Laerm;36239;48.132;-1.210;2022-08-04T09:04:26;67.45;42.47;96.77;;
50333;Laerm;36239;48.132;-1.210;2022-08-04T09:15:13;58.76;37.32;87.50;;
50333;Laerm;36239;48.132;-1.210;2022-08-04T09:17:42;68.10;38.21;94.94;;
50333;Laerm;36239;48.132;-1.210;2022-08-04T09:22:49;71.70;38.52;94.62;;
50333;Laerm;36239;48.132;-1.210;2022-08-04T09:28:06;58.51;35.94;86.52;;
50333;Laerm;36239;48.132;-1.210;2022-08-04T09:40:57;58.90;41.68;88.96;;
50333;Laerm;36239;48.132;-1.210;2022-08-04T09:46:18;59.86;39.21;83.54;;
50333;Laerm;36239;48.132;-1.210;2022-08-04T09:48:54;54.79;39.81;77.84;;
50333;Laerm;36239;48.132;-1.210;2022-08-04T10:01:35;61.71;35.94;88.51;;
50333;Laerm;36239;48.132;-1.210;2022-08-04T10:04:05;68.96;37.52;94.28;;
50333;Laerm;36239;48.132;-1.210;2022-08-04T10:06:47;68.24;36.20;96.29;;
50333;Laerm;36239;48.132;-1.210;2022-08-04T10:09:43;59.50;36.45;86.35;;
50333;Laerm;36239;48.132;-1.210;2022-08-04T10:12:26;55.30;36.91;81.15;;
50333;Laerm;36239;48.132;-1.210;2022-08-04T10:17:24;73.09;38.81;97.85;;
50333;Laerm;36239;48.132;-1.210;2022-08-04T10:20:36;60.95;38.95;89.52;;
50333;Laerm;36239;48.132;-1.210;2022-08-04T10:22:42;67.19;36.69;89.78;;
50333;Laerm;36239;48.132;-1.210;2022-08-04T10:27:48;64.75;36.45;88.41;;
50333;Laerm;36239;48.132;-1.210;2022-08-04T10:30:16;63.58;37.12;91.10;;
50333;Laerm;36239;48.132;-1.210;2022-08-04T10:32:44;47.44;37.12;75.14;;
50333;Laerm;36239;48.132;-1.210;2022-08-04T10:35:17;61.55;37.32;85.81;;
50333;Laerm;36239;48.132;-1.210;2022-08-04T10:45:58;64.75;36.20;90.30;;
50333;Laerm;36239;48.132;-1.210;2022-08-04T10:53:49;67.52;37.88;91.74;;
50333;Laerm;36239;48.132;-1.210;2022-08-04T10:56:28;69.12;36.20;91.87;;
50333;Laerm;36239;48.132;-1.210;2022-08-04T10:59:02;54.52;35.94;79.31;;
50333;Laerm;36239;48.132;-1.210;2022-08-04T11:01:31;57.26;35.04;80.80;;
50333;Laerm;36239;48.132;-1.210;2022-08-04T11:04:06;52.03;35.36;82.44;;
50333;Laerm;36239;48.132;-1.210;2022-08-04T11:06:33;52.54;35.66;77.96;;
50333;Laerm;36239;48.132;-1.210;2022-08-04T11:08:59;49.34;35.36;77.05;;
50333;Laerm;36239;48.132;-1.210;2022-08-04T11:11:31;60.21;33.44;86.39;;
50333;Laerm;36239;48.132;-1.210;2022-08-04T11:14:01;65.95;35.66;89.03;;
50333;Laerm;36239;48.132;-1.210;2022-08-04T11:16:30;57.66;36.45;85.57;;
50333;Laerm;36239;48.132;-1.210;2022-08-04T11:21:43;52.27;35.59;83.38;;
50333;Laerm;36239;48.132;-1.210;2022-08-04T11:24:16;58.22;35.94;81.45;;
50333;Laerm;36239;48.132;-1.210;2022-08-04T11:26:48;50.53;35.04;77.71;;
50333;Laerm;36239;48.132;-1.210;2022-08-04T11:29:21;53.80;35.04;81.61;;
50333;Laerm;36239;48.132;-1.210;2022-08-04T11:31:49;53.03;35.66;78.31;;
50333;Laerm;36239;48.132;-1.210;2022-08-04T11:39:32;58.56;36.20;80.97;;
50333;Laerm;36239;48.132;-1.210;2022-08-04T11:42:13;48.31;35.66;70.93;;
50333;Laerm;36239;48.132;-1.210;2022-08-04T11:50:07;57.93;35.94;83.59;;
50333;Laerm;36239;48.132;-1.210;2022-08-04T11:52:37;57.33;36.20;80.78;;
50333;Laerm;36239;48.132;-1.210;2022-08-04T11:55:04;60.38;37.12;89.28;;
50333;Laerm;36239;48.132;-1.210;2022-08-04T11:57:31;58.74;35.36;79.46;;
50333;Laerm;36239;48.132;-1.210;2022-08-04T11:59:58;54.80;35.36;83.11;;
50333;Laerm;36239;48.132;-1.210;2022-08-04T12:05:01;59.59;35.36;86.33;;
50333;Laerm;36239;48.132;-1.210;2022-08-04T12:07:41;55.29;35.66;78.63;;
50333;Laerm;36239;48.132;-1.210;2022-08-04T12:17:48;68.17;36.91;95.15;;
50333;Laerm;36239;48.132;-1.210;2022-08-04T12:20:17;54.23;36.45;75.36;;
50333;Laerm;36239;48.132;-1.210;2022-08-04T12:22:47;67.66;37.12;91.03;;
50333;Laerm;36239;48.132;-1.210;2022-08-04T12:25:25;63.38;36.69;85.86;;
50333;Laerm;36239;48.132;-1.210;2022-08-04T12:27:55;62.99;36.69;88.61;;
50333;Laerm;36239;48.132;-1.210;2022-08-04T12:30:23;65.20;35.36;89.91;;
50333;Laerm;36239;48.132;-1.210;2022-08-04T12:32:58;58.88;35.66;88.91;;
50333;Laerm;36239;48.132;-1.210;2022-08-04T12:35:38;54.48;36.45;82.50;;
50333;Laerm;36239;48.132;-1.210;2022-08-04T12:38:05;44.04;37.70;68.12;;
50333;Laerm;36239;48.132;-1.210;2022-08-04T12:40:39;64.53;37.52;91.40;;
50333;Laerm;36239;48.132;-1.210;2022-08-04T12:43:13;55.82;35.36;81.22;;
50333;Laerm;36239;48.132;-1.210;2022-08-04T12:45:48;49.70;33.90;74.44;;
50333;Laerm;36239;48.132;-1.210;2022-08-04T12:48:14;58.18;36.45;83.42;;
50333;Laerm;36239;48.132;-1.210;2022-08-04T12:50:41;63.11;36.69;86.11;;
50333;Laerm;36239;48.132;-1.210;2022-08-04T12:53:12;64.23;37.32;90.44;;
50333;Laerm;36239;48.132;-1.210;2022-08-04T12:55:43;56.39;36.91;78.05;;
50333;Laerm;36239;48.132;-1.210;2022-08-04T12:58:11;45.03;36.45;71.15;;
50333;Laerm;36239;48.132;-1.210;2022-08-04T13:00:37;61.05;37.32;89.84;;
50333;Laerm;36239;48.132;-1.210;2022-08-04T13:03:13;57.40;35.94;82.30;;
50333;Laerm;36239;48.132;-1.210;2022-08-04T13:05:40;64.48;35.04;87.45;;
50333;Laerm;36239;48.132;-1.210;2022-08-04T13:08:07;49.41;37.12;74.78;;
50333;Laerm;36239;48.132;-1.210;2022-08-04T13:10:37;59.03;36.69;84.57;;
50333;Laerm;36239;48.132;-1.210;2022-08-04T13:13:04;58.35;36.20;79.64;;
50333;Laerm;36239;48.132;-1.210;2022-08-04T13:15:30;58.39;36.91;83.70;;
50333;Laerm;36239;48.132;-1.210;2022-08-04T13:20:30;60.90;36.69;85.70;;
50333;Laerm;36239;48.132;-1.210;2022-08-04T13:23:09;59.84;37.88;83.89;;
50333;Laerm;36239;48.132;-1.210;2022-08-04T13:25:40;58.20;37.88;81.72;;
50333;Laerm;36239;48.132;-1.210;2022-08-04T13:28:07;65.06;36.45;89.60;;
50333;Laerm;36239;48.132;-1.210;2022-08-04T13:30:37;53.39;36.20;77.25;;
50333;Laerm;36239;48.132;-1.210;2022-08-04T13:33:03;51.66;36.45;80.64;;
50333;Laerm;36239;48.132;-1.210;2022-08-04T13:35:31;63.46;38.21;90.25;;
50333;Laerm;36239;48.132;-1.210;2022-08-04T13:37:57;64.27;37.32;87.20;;
50333;Laerm;36239;48.132;-1.210;2022-08-04T13:40:24;66.86;36.20;93.93;;
50333;Laerm;36239;48.132;-1.210;2022-08-04T13:42:52;56.26;35.94;84.19;;
50333;Laerm;36239;48.132;-1.210;2022-08-04T13:45:21;49.32;35.04;74.24;;
50333;Laerm;36239;48.132;-1.210;2022-08-04T13:47:48;50.06;36.45;74.63;;
50333;Laerm;36239;48.132;-1.210;2022-08-04T13:50:20;48.14;36.91;72.86;;
50333;Laerm;36239;48.132;-1.210;2022-08-04T13:52:53;67.52;37.70;90.39;;
50333;Laerm;36239;48.132;-1.210;2022-08-04T13:55:23;55.37;35.66;80.90;;
50333;Laerm;36239;48.132;-1.210;2022-08-04T13:57:54;47.32;37.12;72.99;;
50333;Laerm;36239;48.132;-1.210;2022-08-04T14:00:20;64.16;37.12;92.73;;
50333;Laerm;36239;48.132;-1.210;2022-08-04T14:03:50;63.24;37.12;85.52;;
50333;Laerm;36239;48.132;-1.210;2022-08-04T14:05:42;61.87;37.88;86.14;;
50333;Laerm;36239;48.132;-1.210;2022-08-04T14:08:13;68.50;36.69;95.12;;
50333;Laerm;36239;48.132;-1.210;2022-08-04T14:10:39;63.97;36.91;92.70;;
50333;Laerm;36239;48.132;-1.210;2022-08-04T14:13:06;56.69;36.45;80.92;;
50333;Laerm;36239;48.132;-1.210;2022-08-04T14:21:02;53.19;35.66;73.79;;
50333;Laerm;36239;48.132;-1.210;2022-08-04T14:23:36;57.85;37.52;80.47;;
50333;Laerm;36239;48.132;-1.210;2022-08-04T14:28:41;64.92;37.32;87.12;;
50333;Laerm;36239;48.132;-1.210;2022-08-04T14:31:08;53.83;37.12;77.54;;
50333;Laerm;36239;48.132;-1.210;2022-08-04T14:33:36;56.70;37.88;79.55;;
50333;Laerm;36239;48.132;-1.210;2022-08-04T14:36:02;66.17;37.70;88.57;;
50333;Laerm;36239;48.132;-1.210;2022-08-04T14:41:07;63.67;38.95;90.56;;
50333;Laerm;36239;48.132;-1.210;2022-08-04T14:43:39;59.46;38.05;83.73;;
50333;Laerm;36239;48.132;-1.210;2022-08-04T14:46:05;65.59;38.21;91.23;;
50333;Laerm;36239;48.132;-1.210;2022-08-04T14:48:31;68.75;38.21;94.90;;
50333;Laerm;36239;48.132;-1.210;2022-08-04T14:50:57;63.75;37.70;88.85;;
50333;Laerm;36239;48.132;-1.210;2022-08-04T14:53:24;77.07;37.70;104.55;;
50333;Laerm;36239;48.132;-1.210;2022-08-04T14:55:55;69.76;39.11;95.43;;
50333;Laerm;36239;48.132;-1.210;2022-08-04T14:58:23;58.56;37.70;80.16;;
50333;Laerm;36239;48.132;-1.210;2022-08-04T15:00:50;62.26;37.88;88.68;;
50333;Laerm;36239;48.132;-1.210;2022-08-04T15:03:18;70.51;36.69;95.42;;
50333;Laerm;36239;48.132;-1.210;2022-08-04T15:05:44;53.39;37.35;81.16;;
50333;Laerm;36239;48.132;-1.210;2022-08-04T15:08:11;65.13;39.21;85.24;;
50333;Laerm;36239;48.132;-1.210;2022-08-04T15:10:38;70.22;39.46;93.83;;
50333;Laerm;36239;48.132;-1.210;2022-08-04T15:13:05;67.16;38.81;89.69;;
50333;Laerm;36239;48.132;-1.210;2022-08-04T15:15:31;67.95;38.52;97.44;;
50333;Laerm;36239;48.132;-1.210;2022-08-04T15:17:57;71.10;38.67;95.86;;
50333;Laerm;36239;48.132;-1.210;2022-08-04T15:20:24;58.47;37.88;78.93;;
50333;Laerm;36239;48.132;-1.210;2022-08-04T15:22:50;67.91;37.70;90.17;;
50333;Laerm;36239;48.132;-1.210;2022-08-04T15:25:16;63.67;37.70;86.07;;
50333;Laerm;36239;48.132;-1.210;2022-08-04T15:27:42;58.56;38.21;82.27;;
50333;Laerm;36239;48.132;-1.210;2022-08-04T15:30:11;68.11;39.21;92.26;;
50333;Laerm;36239;48.132;-1.210;2022-08-04T15:32:39;67.38;37.88;89.59;;
50333;Laerm;36239;48.132;-1.210;2022-08-04T15:35:10;56.79;38.37;81.73;;
50333;Laerm;36239;48.132;-1.210;2022-08-04T15:40:24;66.41;36.91;89.89;;
50333;Laerm;36239;48.132;-1.210;2022-08-04T15:45:53;46.68;37.52;66.85;;
50333;Laerm;36239;48.132;-1.210;2022-08-04T15:53:20;61.96;37.32;85.41;;
50333;Laerm;36239;48.132;-1.210;2022-08-04T15:55:46;57.66;37.70;82.46;;
50333;Laerm;36239;48.132;-1.210;2022-08-04T15:58:12;52.07;37.88;83.10;;
50333;Laerm;36239;48.132;-1.210;2022-08-04T16:16:27;63.18;37.70;85.53;;
50333;Laerm;36239;48.132;-1.210;2022-08-04T16:18:53;50.79;38.95;77.75;;
50333;Laerm;36239;48.132;-1.210;2022-08-04T16:21:23;68.40;37.70;91.03;;
50333;Laerm;36239;48.132;-1.210;2022-08-04T16:34:29;71.21;38.05;93.44;;
50333;Laerm;36239;48.132;-1.210;2022-08-04T16:36:58;66.04;38.81;92.78;;
50333;Laerm;36239;48.132;-1.210;2022-08-04T16:39:24;70.63;38.81;92.38;;
50333;Laerm;36239;48.132;-1.210;2022-08-04T16:41:50;60.46;37.88;82.66;;
50333;Laerm;36239;48.132;-1.210;2022-08-04T16:44:32;61.47;38.81;83.29;;
50333;Laerm;36239;48.132;-1.210;2022-08-04T16:46:59;64.69;38.21;88.96;;
50333;Laerm;36239;48.132;-1.210;2022-08-04T16:49:27;53.56;38.05;78.65;;
50333;Laerm;36239;48.132;-1.210;2022-08-04T16:51:54;60.86;38.95;79.62;;
50333;Laerm;36239;48.132;-1.210;2022-08-04T16:54:27;62.49;42.41;85.68;;
50333;Laerm;36239;48.132;-1.210;2022-08-04T16:56:53;62.93;38.21;90.18;;
50333;Laerm;36239;48.132;-1.210;2022-08-04T16:59:20;54.05;38.67;80.26;;
50333;Laerm;36239;48.132;-1.210;2022-08-04T17:01:47;69.75;39.92;94.73;;
50333;Laerm;36239;48.132;-1.210;2022-08-04T17:04:14;66.37;38.52;94.16;;
50333;Laerm;36239;48.132;-1.210;2022-08-04T17:06:41;72.18;38.81;95.39;;
50333;Laerm;36239;48.132;-1.210;2022-08-04T17:09:14;52.16;38.52;77.40;;
50333;Laerm;36239;48.132;-1.210;2022-08-04T17:11:41;66.76;38.37;92.28;;
50333;Laerm;36239;48.132;-1.210;2022-08-04T17:14:08;61.84;38.21;85.53;;
50333;Laerm;36239;48.132;-1.210;2022-08-04T17:16:34;53.53;38.37;79.20;;
50333;Laerm;36239;48.132;-1.210;2022-08-04T17:19:01;62.03;40.03;86.50;;
50333;Laerm;36239;48.132;-1.210;2022-08-04T17:21:28;58.84;39.58;86.58;;
50333;Laerm;36239;48.132;-1.210;2022-08-04T17:23:58;52.46;38.21;75.47;;
50333;Laerm;36239;48.132;-1.210;2022-08-04T17:26:25;66.58;38.95;93.59;;
50333;Laerm;36239;48.132;-1.210;2022-08-04T17:28:52;78.38;39.34;100.54;;
50333;Laerm;36239;48.132;-1.210;2022-08-04T17:31:20;60.79;38.81;85.70;;
50333;Laerm;36239;48.132;-1.210;2022-08-04T17:33:47;65.91;40.53;96.29;;
50333;Laerm;36239;48.132;-1.210;2022-08-04T17:36:14;67.87;38.37;91.78;;
50333;Laerm;36239;48.132;-1.210;2022-08-04T17:38:44;58.45;37.52;92.48;;
50333;Laerm;36239;48.132;-1.210;2022-08-04T17:41:11;67.49;38.37;92.38;;
50333;Laerm;36239;48.132;-1.210;2022-08-04T17:46:46;58.55;37.70;87.65;;
50333;Laerm;36239;48.132;-1.210;2022-08-04T17:49:23;65.18;38.21;88.88;;
50333;Laerm;36239;48.132;-1.210;2022-08-04T17:51:50;61.28;38.21;86.51;;
50333;Laerm;36239;48.132;-1.210;2022-08-04T17:54:18;66.86;37.32;96.89;;
50333;Laerm;36239;48.132;-1.210;2022-08-04T17:59:20;67.47;38.74;89.99;;
50333;Laerm;36239;48.132;-1.210;2022-08-04T18:01:50;70.20;38.18;96.10;;
50333;Laerm;36239;48.132;-1.210;2022-08-04T18:07:14;64.05;38.52;92.73;;
50333;Laerm;36239;48.132;-1.210;2022-08-04T18:12:21;68.25;37.88;90.78;;
50333;Laerm;36239;48.132;-1.210;2022-08-04T18:14:48;69.10;38.21;92.88;;
50333;Laerm;36239;48.132;-1.210;2022-08-04T18:19:59;57.16;36.45;82.99;;
50333;Laerm;36239;48.132;-1.210;2022-08-04T18:22:25;59.85;38.05;85.13;;
50333;Laerm;36239;48.132;-1.210;2022-08-04T18:24:51;65.06;38.95;85.45;;
50333;Laerm;36239;48.132;-1.210;2022-08-04T18:27:19;59.40;37.32;81.38;;
50333;Laerm;36239;48.132;-1.210;2022-08-04T18:29:45;59.89;37.88;84.07;;
50333;Laerm;36239;48.132;-1.210;2022-08-04T18:32:11;59.52;37.12;81.73;;
50333;Laerm;36239;48.132;-1.210;2022-08-04T18:34:37;57.31;36.45;80.26;;
50333;Laerm;36239;48.132;-1.210;2022-08-04T18:37:03;70.16;38.21;93.87;;
50333;Laerm;36239;48.132;-1.210;2022-08-04T18:39:29;60.16;37.52;89.38;;
50333;Laerm;36239;48.132;-1.210;2022-08-04T18:41:55;65.87;37.52;87.88;;
50333;Laerm;36239;48.132;-1.210;2022-08-04T18:44:22;75.73;36.91;100.68;;
50333;Laerm;36239;48.132;-1.210;2022-08-04T18:46:48;61.71;38.21;87.55;;
50333;Laerm;36239;48.132;-1.210;2022-08-04T18:49:14;60.10;36.91;86.73;;